Flight Track Log - Related Links

Times and Time Zones

All times are in EDT time to prevent confusion due to time zone crossing. See the EJA898 flight status page for this flight to view local times or setup timezone preferences in your user account.

Time Position Orientation Groundspeed Altitude Reporting Facility
EDT Latitude Longitude Course Direction KTS MPH feet Rate Location/Type
Sat 12:49:12 PM 39.0833 -108.4833 252° West 191 220 8,000  Level Denver TRACON
Sat 12:49:31 PM 39.0647 -108.4803 173° South 202 232 9,200 3,300 Climbing Salt Lake Center
Sat 12:50:32 PM 39.0103 -108.4478 155° Southeast 216 249 12,400 2,585 Climbing Salt Lake Center
Sat 12:51:34 PM 38.9564 -108.4878 210° Southwest 250 288 14,500 2,578 Climbing Salt Lake Center
Sat 12:52:40 PM 38.9464 -108.6153 264° West 302 348 17,900 2,906 Climbing Denver Center
Sat 12:53:42 PM 38.9383 -108.7303 265° West 321 369 20,700 2,565 Climbing Denver Center
Sat 12:54:00 PM 38.9861 -109.1888 252° West  Level FlightAware Approximate
Sat 12:54:44 PM 38.9300 -108.8586 265° West 336 387 23,200  Level Denver Center
Sat 12:55:46 PM 38.9225 -108.9858 266° West 342 394 25,600 2,226 Climbing Denver Center
Sat 12:56:48 PM 38.9147 -109.1056 265° West 350 403 27,800 2,129 Climbing Denver Center
Sat 12:57:50 PM 38.9061 -109.2283 265° West 356 410 30,000 2,323 Climbing Denver Center
Sat 12:58:52 PM 38.8969 -109.3686 265° West 353 406 32,600 2,081 Climbing Denver Center
Sat 12:59:54 PM 38.8892 -109.4861 265° West 346 398 34,300 1,742 Climbing Denver Center
Sat 01:00:56 PM 38.8794 -109.6222 265° West 343 395 36,200 1,645 Climbing Denver Center
Sat 01:01:58 PM 38.8725 -109.7386 266° West 341 392 37,700 871 Climbing Denver Center
Sat 01:03:00 PM 38.8606 -109.8747 264° West 344 396 38,000 162 Climbing Denver Center
Sat 01:03:49 PM 38.8553 -109.9797 266° West 360 414 38,000  Level Salt Lake Center
Sat 01:04:51 PM 38.8464 -110.1083 265° West 374 430 38,000  Level Salt Lake Center
Sat 01:05:17 PM 38.8419 -110.1725 265° West 374 430 38,000  Level Denver Center
Sat 01:06:19 PM 38.8164 -110.2969 255° West 384 442 38,000  Level Denver Center
Sat 01:07:21 PM 38.7322 -110.4206 229° Southwest 419 482 38,000  Level Denver Center
Sat 01:07:54 PM 38.6828 -110.4633 214° Southwest 439 505 38,000  Level Salt Lake Center
Sat 01:08:56 PM 38.5636 -110.5547 211° Southwest 449 517 38,000  Level Salt Lake Center
Sat 01:09:25 PM 38.5108 -110.5931 210° Southwest 449 517 38,000  Level Denver Center
Sat 01:09:57 PM 38.4606 -110.6339 212° Southwest 452 520 38,000  Level Salt Lake Center
Sat 01:10:58 PM 38.3428 -110.7256 211° Southwest 445 512 38,000  Level Salt Lake Center
Sat 01:11:59 PM 38.2403 -110.8050 211° Southwest 448 516 38,000  Level Salt Lake Center
Sat 01:13:01 PM 38.1369 -110.8825 211° Southwest 451 519 38,000  Level Salt Lake Center
Sat 01:13:33 PM 38.0756 -110.9267 210° Southwest 450 518 38,000  Level Denver Center
Sat 01:14:34 PM 37.9675 -111.0097 211° Southwest 454 522 38,000  Level Denver Center
Sat 01:15:36 PM 37.8597 -111.0911 211° Southwest 452 520 38,000  Level Denver Center
Sat 01:16:04 PM 37.7942 -111.1394 210° Southwest 453 521 38,000  Level Salt Lake Center
Sat 01:17:06 PM 37.6872 -111.2211 211° Southwest 450 518 38,000  Level Salt Lake Center
Sat 01:17:40 PM 37.6217 -111.2700 211° Southwest 453 521 38,000  Level Denver Center
Sat 01:18:42 PM 37.5114 -111.3528 211° Southwest 458 527 38,000  Level Denver Center
Sat 01:19:44 PM 37.4031 -111.4347 211° Southwest 456 525 38,000  Level Denver Center
Sat 01:20:46 PM 37.2933 -111.5156 210° Southwest 455 524 38,000 -387 Level Denver Center
Sat 01:21:48 PM 37.1853 -111.5950 210° Southwest 450 518 37,200 -878 Descending Denver Center
Sat 01:22:49 PM 37.0789 -111.6756 211° Southwest 447 514 36,200 -585 Descending Denver Center
Sat 01:23:51 PM 36.9469 -111.7722 210° Southwest 451 519 36,000 -1,016 Descending Denver Center
Sat 01:24:53 PM 36.8297 -111.8403 205° Southwest 462 532 34,100 -1,452 Descending Denver Center
Sat 01:25:55 PM 36.7017 -111.8822 195° South 471 542 33,000 -516 Descending Denver Center
Sat 01:27:01 PM 36.5678 -111.9225 194° South 481 554 33,000  Level Los Angeles Center
Sat 01:28:03 PM 36.4381 -111.9633 194° South 480 552 33,000 -1,056 Level Los Angeles Center
Sat 01:29:06 PM 36.2869 -112.0086 194° South 466 536 30,800 -1,872 Descending Los Angeles Center
Sat 01:30:08 PM 36.1769 -112.0417 194° South 447 514 29,100 -871 Descending Los Angeles Center
Sat 01:31:10 PM 36.0533 -112.0800 194° South 460 529 29,000 -48 Descending Los Angeles Center
Sat 01:32:12 PM 35.9231 -112.1197 194° South 481 554 29,000  Level Los Angeles Center
Sat 01:33:14 PM 35.7633 -112.1664 193° South 490 564 29,000  Level Los Angeles Center
Sat 01:34:29 PM 35.6031 -112.2144 194° South 494 568 29,000  Level Los Angeles Center
Sat 01:35:11 PM 35.5236 -112.2383 194° South 490 564 29,000  Level Albuquerque Center
Sat 01:36:14 PM 35.3639 -112.2853 193° South 490 564 29,000  Level Albuquerque Center
Sat 01:37:15 PM 35.2328 -112.3247 194° South 486 559 29,000 -1,463 Level Albuquerque Center
Sat 01:38:17 PM 35.1033 -112.3633 194° South 480 552 26,000 -2,855 Descending Albuquerque Center
Sat 01:39:19 PM 34.9783 -112.3739 184° South 462 532 23,100 -1,452 Descending Albuquerque Center
Sat 01:40:21 PM 34.8719 -112.2869 146° Southeast 477 549 23,000 -48 Descending Albuquerque Center
Sat 01:41:23 PM 34.7839 -112.1686 132° Southeast 476 548 23,000  Level Albuquerque Center
Sat 01:42:25 PM 34.6822 -112.0336 132° Southeast 468 539 23,000 -629 Level Albuquerque Center
Sat 01:43:27 PM 34.5914 -111.9225 135° Southeast 465 535 21,700 -2,226 Descending Albuquerque Center
Sat 01:44:29 PM 34.4725 -111.9053 173° South 437 503 18,400 -3,290 Descending Albuquerque Center
Sat 01:45:31 PM 34.3583 -111.9125 183° South 418 481 14,900 -3,290 Descending Albuquerque Center
Sat 01:46:33 PM 34.2611 -111.9175 182° South 367 422 11,600 -1,920 Descending Albuquerque Center
Sat 01:47:36 PM 34.1661 -111.9236 183° South 288 331 10,900 -960 Descending Albuquerque Center
Sat 01:48:38 PM 34.0872 -111.9286 183° South 284 327 9,600 -1,220 Descending Albuquerque Center
Sat 01:49:39 PM 34.0094 -111.9314 182° South 283 326 8,400 -1,024 Descending Albuquerque Center
Sat 01:50:41 PM 33.9353 -111.9375 184° South 273 314 7,500 -677 Descending Albuquerque Center
Sat 01:51:43 PM 33.8636 -111.9317 176° South 265 305 7,000 -919 Descending Albuquerque Center
Sat 01:52:45 PM 33.7844 -111.9114 168° South 243 280 5,600 -1,210 Descending Albuquerque Center
Sat 01:53:47 PM 33.7267 -111.8933 165° South 219 252 4,500 -1,113 Descending Albuquerque Center
Sat 01:54:49 PM 33.6842 -111.8697 155° Southeast 180 207 3,300 -1,016 Descending Albuquerque Center
Sat 01:55:51 PM 33.6519 -111.8789 193° South 156 180 2,400 -726 Descending Albuquerque Center
Sat 01:56:53 PM 33.6214 -111.9139 224° Southwest 146 168 1,800 -581 Descending Albuquerque Center
Sat 01:58:00 PM 33.6229 -111.9105 189° South  Level Estimated

Login

Don't have an account? Register now (free) for customized features, flight alerts, and more!